Time;durP1;ratioP1;P1;durP2;ratioP2;P2;SDS_P1;SDS_P2;PMS_P1;PMS_P2;Temp;Humidity;BMP_temperature;BMP_pressure;BME280_temperature;BME280_humidity;BME280_pressure;Samples;Min_cycle;Max_cycle;Signal;HPM_P1;HPM_P2
2022/12/07 00:00:56;;;;;;;126.18;81.78;;;7.80;99.90;;;;;;4961657;28;20046;-77
2022/12/07 00:03:24;;;;;;;130.60;82.90;;;7.80;99.90;;;;;;4961789;28;20039;-78
2022/12/07 00:05:53;;;;;;;125.97;80.35;;;7.70;99.90;;;;;;4946260;28;20051;-78
2022/12/07 00:08:20;;;;;;;130.88;85.07;;;7.70;99.90;;;;;;4959785;28;20046;-77
2022/12/07 00:10:47;;;;;;;127.30;82.97;;;7.70;99.90;;;;;;4960227;28;20054;-78
2022/12/07 00:13:15;;;;;;;126.70;85.45;;;7.70;99.90;;;;;;4961727;28;20066;-79
2022/12/07 00:15:42;;;;;;;126.63;82.28;;;7.70;99.90;;;;;;4943500;28;20947;-79
2022/12/07 00:18:09;;;;;;;133.93;86.05;;;7.80;99.90;;;;;;4961026;28;20557;-78
2022/12/07 00:20:37;;;;;;;123.00;82.85;;;7.90;99.90;;;;;;4961976;28;20039;-78
2022/12/07 00:23:05;;;;;;;127.90;82.97;;;8.00;99.90;;;;;;4961216;28;20430;-78
2022/12/07 00:25:33;;;;;;;138.18;89.82;;;8.10;99.90;;;;;;4961794;28;20053;-77
2022/12/07 00:28:00;;;;;;;125.45;82.13;;;8.20;99.90;;;;;;4962582;28;20043;-78
2022/12/07 00:30:27;;;;;;;132.00;86.75;;;8.20;99.90;;;;;;4963732;28;20143;-78
2022/12/07 00:32:55;;;;;;;134.75;90.10;;;8.20;99.90;;;;;;4966544;28;20051;-77
2022/12/07 00:35:22;;;;;;;170.15;104.55;;;8.20;99.90;;;;;;4963955;28;20043;-79
2022/12/07 00:37:49;;;;;;;190.23;113.93;;;8.10;99.90;;;;;;4959532;28;20046;-77
2022/12/07 00:40:18;;;;;;;185.93;113.47;;;8.10;99.90;;;;;;4961261;28;20555;-76
2022/12/07 00:42:46;;;;;;;170.63;105.78;;;8.10;99.90;;;;;;4977628;28;20077;-79
2022/12/07 00:45:13;;;;;;;153.15;98.22;;;8.00;99.90;;;;;;4988423;28;20106;-79
2022/12/07 00:47:48;;;;;;;150.45;96.72;;;8.00;99.90;;;;;;4973581;28;20039;-77
2022/12/07 00:50:15;;;;;;;148.32;95.10;;;8.00;99.90;;;;;;4952423;28;20652;-77
2022/12/07 00:52:42;;;;;;;157.00;99.18;;;8.00;99.90;;;;;;4965982;28;20043;-76
2022/12/07 00:55:10;;;;;;;159.25;100.38;;;7.90;99.90;;;;;;4964632;28;20039;-76
2022/12/07 00:57:40;;;;;;;146.45;96.07;;;7.90;99.90;;;;;;4966172;28;20044;-77
2022/12/07 01:00:09;;;;;;;159.23;98.95;;;7.80;99.90;;;;;;4964785;28;20491;-76
2022/12/07 01:02:36;;;;;;;145.23;92.63;;;7.60;99.90;;;;;;4964668;28;20058;-77
2022/12/07 01:05:04;;;;;;;129.23;85.68;;;7.60;99.90;;;;;;4966963;28;20459;-77
2022/12/07 01:07:32;;;;;;;141.40;92.05;;;7.50;99.90;;;;;;4967862;28;20042;-77
2022/12/07 01:09:59;;;;;;;138.02;87.45;;;7.40;99.90;;;;;;4967483;28;20086;-77
2022/12/07 01:12:26;;;;;;;143.45;89.45;;;7.30;99.90;;;;;;4973245;28;20129;-77
2022/12/07 01:14:55;;;;;;;126.03;83.47;;;7.30;99.90;;;;;;4989125;28;20053;-77
2022/12/07 01:17:22;;;;;;;133.70;84.05;;;7.20;99.90;;;;;;4988819;28;20067;-79
2022/12/07 01:19:50;;;;;;;135.52;86.95;;;7.20;99.90;;;;;;4975814;28;20050;-78
2022/12/07 01:22:17;;;;;;;135.55;85.57;;;7.20;99.90;;;;;;4983561;28;20058;-79
2022/12/07 01:24:46;;;;;;;129.98;83.80;;;7.20;99.90;;;;;;4988373;28;20043;-77
2022/12/07 01:27:14;;;;;;;134.82;84.82;;;7.20;99.90;;;;;;4987178;28;20093;-77
2022/12/07 01:29:41;;;;;;;151.18;90.88;;;7.20;99.90;;;;;;4980867;28;20066;-77
2022/12/07 01:32:11;;;;;;;140.77;88.72;;;7.20;99.90;;;;;;4973472;28;20054;-77
2022/12/07 01:34:38;;;;;;;133.15;88.13;;;7.20;99.90;;;;;;4981201;28;20051;-78
2022/12/07 01:37:05;;;;;;;142.65;90.65;;;7.30;99.90;;;;;;4966329;28;20059;-79
2022/12/07 01:39:33;;;;;;;133.68;84.40;;;7.40;99.90;;;;;;4973811;28;20050;-76
2022/12/07 01:42:00;;;;;;;136.30;87.28;;;7.50;99.90;;;;;;4956181;28;20055;-78
2022/12/07 01:44:29;;;;;;;137.23;87.57;;;7.50;99.90;;;;;;4964837;28;20106;-77
2022/12/07 01:46:58;;;;;;;136.75;86.78;;;7.50;99.90;;;;;;4967948;28;20555;-79
2022/12/07 01:49:32;;;;;;;150.55;94.95;;;7.60;99.90;;;;;;4948917;28;20047;-77
2022/12/07 01:52:10;;;;;;;148.30;92.40;;;7.60;99.90;;;;;;4947238;28;20036;-77
2022/12/07 01:54:37;;;;;;;146.57;90.68;;;7.60;99.90;;;;;;4964466;28;20050;-78
2022/12/07 01:57:08;;;;;;;148.50;92.50;;;7.60;99.90;;;;;;4961959;28;20039;-77
2022/12/07 01:59:36;;;;;;;140.13;87.95;;;7.70;99.90;;;;;;4965879;28;20054;-78
2022/12/07 02:02:08;;;;;;;138.55;87.45;;;7.80;99.90;;;;;;4945235;28;20047;-77
2022/12/07 02:04:37;;;;;;;138.10;88.75;;;7.90;99.90;;;;;;4966554;28;20035;-78
2022/12/07 02:07:07;;;;;;;139.02;84.82;;;7.90;99.90;;;;;;4962834;28;20043;-77
2022/12/07 02:09:35;;;;;;;138.48;84.50;;;8.00;99.90;;;;;;4964108;28;20142;-78
2022/12/07 02:12:03;;;;;;;139.68;83.70;;;8.00;99.90;;;;;;4964532;28;20058;-79
2022/12/07 02:14:30;;;;;;;145.52;93.18;;;8.00;99.90;;;;;;4963762;28;20051;-78
2022/12/07 02:17:08;;;;;;;142.82;87.32;;;8.00;99.90;;;;;;4964042;28;20047;-77
2022/12/07 02:20:10;;;;;;;126.28;79.65;;;8.00;99.90;;;;;;4961263;28;20106;-77
2022/12/07 02:23:01;;;;;;;129.32;79.47;;;7.90;99.90;;;;;;4963919;28;20057;-77
2022/12/07 02:25:43;;;;;;;138.15;81.80;;;7.80;99.90;;;;;;4963613;28;20070;-78
2022/12/07 02:28:18;;;;;;;133.10;81.15;;;7.90;99.90;;;;;;4968520;28;20051;-78
2022/12/07 02:30:49;;;;;;;134.20;84.85;;;7.80;99.90;;;;;;4964139;28;20047;-79
2022/12/07 02:33:21;;;;;;;131.85;82.70;;;7.80;99.90;;;;;;4982105;28;20039;-77
2022/12/07 02:35:58;;;;;;;130.65;82.85;;;7.80;99.90;;;;;;4981833;28;20042;-77
2022/12/07 02:38:32;;;;;;;134.63;87.45;;;7.70;99.90;;;;;;4972033;28;20050;-78
2022/12/07 02:41:06;;;;;;;135.70;85.10;;;7.70;99.90;;;;;;4967089;28;20050;-78
2022/12/07 02:43:38;;;;;;;132.30;84.32;;;7.70;99.90;;;;;;4949451;28;20042;-78
2022/12/07 02:46:10;;;;;;;114.80;74.63;;;7.70;99.90;;;;;;4964893;28;20098;-78
2022/12/07 02:48:40;;;;;;;113.97;73.18;;;7.70;99.90;;;;;;4961374;28;20069;-78
2022/12/07 02:51:07;;;;;;;107.22;68.72;;;7.80;99.90;;;;;;4962987;28;20043;-78
2022/12/07 02:53:37;;;;;;;104.30;69.15;;;7.80;99.90;;;;;;4944854;28;20050;-77
2022/12/07 02:56:12;;;;;;;110.28;68.72;;;7.80;99.90;;;;;;4963938;28;20507;-77
2022/12/07 02:58:56;;;;;;;111.10;72.13;;;7.80;99.90;;;;;;4962362;28;20046;-78
2022/12/07 03:01:34;;;;;;;116.53;74.25;;;7.80;99.90;;;;;;4962363;28;20038;-78
2022/12/07 03:04:15;;;;;;;118.47;77.15;;;7.80;99.90;;;;;;4982709;28;20031;-79
2022/12/07 03:06:50;;;;;;;114.53;71.38;;;7.80;99.90;;;;;;4968652;28;20081;-77
2022/12/07 03:09:26;;;;;;;106.28;67.50;;;7.80;99.90;;;;;;4986573;28;20047;-76
2022/12/07 03:12:00;;;;;;;107.00;68.82;;;7.80;99.90;;;;;;4980065;28;20106;-75
2022/12/07 03:14:33;;;;;;;109.57;70.70;;;7.80;99.90;;;;;;4986455;28;20027;-77
2022/12/07 03:17:08;;;;;;;96.85;63.25;;;7.80;99.90;;;;;;4985727;28;20039;-77
2022/12/07 03:19:37;;;;;;;107.03;69.10;;;7.90;99.90;;;;;;4973021;28;20656;-77
2022/12/07 03:22:08;;;;;;;106.65;69.15;;;7.90;99.90;;;;;;4961169;28;20042;-75
2022/12/07 03:24:40;;;;;;;107.93;71.30;;;7.90;99.90;;;;;;4962580;28;20046;-76
2022/12/07 03:27:12;;;;;;;97.10;64.45;;;8.00;99.90;;;;;;4965586;28;20107;-77
2022/12/07 03:29:45;;;;;;;91.30;58.80;;;8.00;99.90;;;;;;4968217;28;20045;-76
2022/12/07 03:32:20;;;;;;;95.55;61.13;;;8.00;99.90;;;;;;4963034;28;20053;-76
2022/12/07 03:34:52;;;;;;;88.65;58.17;;;7.90;99.90;;;;;;4962316;28;20050;-76
2022/12/07 03:37:27;;;;;;;86.85;56.97;;;7.90;99.90;;;;;;4963736;28;20142;-77
2022/12/07 03:40:03;;;;;;;91.03;59.63;;;7.90;99.90;;;;;;4963660;28;20522;-76
2022/12/07 03:42:32;;;;;;;85.95;52.55;;;7.90;99.90;;;;;;4963164;28;20117;-77
2022/12/07 03:44:59;;;;;;;90.03;56.28;;;7.90;99.90;;;;;;4944080;28;20039;-77
2022/12/07 03:47:34;;;;;;;82.60;53.47;;;7.90;99.90;;;;;;4945825;28;20438;-78
2022/12/07 03:50:07;;;;;;;86.75;56.38;;;7.90;99.90;;;;;;4962669;28;20042;-75
2022/12/07 03:52:40;;;;;;;82.13;54.45;;;8.00;99.90;;;;;;4962207;28;20039;-77
2022/12/07 03:55:12;;;;;;;74.55;49.60;;;8.00;99.90;;;;;;4979856;28;20160;-78
2022/12/07 03:57:42;;;;;;;76.90;52.03;;;8.00;99.90;;;;;;4973349;28;20510;-76
2022/12/07 04:00:12;;;;;;;77.88;53.00;;;8.00;99.90;;;;;;4945509;28;20053;-76
2022/12/07 04:02:44;;;;;;;81.70;55.72;;;8.00;99.90;;;;;;4962836;28;20043;-77
2022/12/07 04:05:12;;;;;;;79.93;54.30;;;8.00;99.90;;;;;;4962394;28;20054;-77
2022/12/07 04:07:39;;;;;;;81.65;53.97;;;8.10;99.90;;;;;;4962293;28;20511;-78
2022/12/07 04:10:08;;;;;;;78.57;53.42;;;8.10;99.90;;;;;;4948312;28;20125;-77
2022/12/07 04:12:35;;;;;;;79.97;52.80;;;8.10;99.90;;;;;;4969115;28;20039;-77
2022/12/07 04:15:03;;;;;;;77.63;52.67;;;8.10;99.90;;;;;;4973792;28;20039;-76
2022/12/07 04:17:30;;;;;;;73.65;50.63;;;8.10;99.90;;;;;;4950067;28;20047;-78
2022/12/07 04:19:59;;;;;;;76.13;51.17;;;8.00;99.90;;;;;;4961306;28;20576;-77
2022/12/07 04:22:26;;;;;;;76.95;51.88;;;8.10;99.90;;;;;;4959195;28;20062;-77
2022/12/07 04:24:54;;;;;;;83.43;53.20;;;8.10;99.90;;;;;;4961791;28;20090;-77
2022/12/07 04:27:22;;;;;;;81.78;52.75;;;8.00;99.90;;;;;;4963405;28;20043;-77
2022/12/07 04:29:49;;;;;;;82.70;54.08;;;8.00;99.90;;;;;;4961832;28;20055;-78
2022/12/07 04:32:16;;;;;;;82.93;54.97;;;8.10;99.90;;;;;;4960139;28;20070;-76
2022/12/07 04:34:44;;;;;;;82.68;52.95;;;8.10;99.90;;;;;;4980420;28;20033;-78
2022/12/07 04:37:13;;;;;;;85.97;54.00;;;8.10;99.90;;;;;;4986239;28;20051;-78
2022/12/07 04:39:40;;;;;;;78.90;51.80;;;8.00;99.90;;;;;;4975750;28;20042;-77
2022/12/07 04:42:08;;;;;;;75.18;50.72;;;7.90;99.90;;;;;;4965289;28;20538;-77
2022/12/07 04:44:35;;;;;;;78.10;52.50;;;7.80;99.90;;;;;;4958463;28;20062;-77
2022/12/07 04:47:03;;;;;;;85.03;57.38;;;7.70;99.90;;;;;;4962578;28;20506;-77
2022/12/07 04:49:30;;;;;;;88.68;55.92;;;7.70;99.90;;;;;;4960762;28;20430;-77
2022/12/07 04:51:58;;;;;;;83.15;56.97;;;7.70;99.90;;;;;;4959838;28;20415;-78
2022/12/07 04:54:26;;;;;;;80.45;53.88;;;7.70;99.90;;;;;;4960163;28;20031;-78
2022/12/07 04:56:54;;;;;;;82.47;54.42;;;7.70;99.90;;;;;;4960672;28;20059;-78
2022/12/07 04:59:21;;;;;;;70.57;47.10;;;7.70;99.90;;;;;;4965335;28;20050;-78
2022/12/07 05:01:49;;;;;;;69.88;45.25;;;7.60;99.90;;;;;;4963124;28;20479;-79
2022/12/07 05:04:17;;;;;;;66.53;46.05;;;7.60;99.90;;;;;;4945335;28;20106;-79
2022/12/07 05:06:45;;;;;;;71.90;50.17;;;7.70;99.90;;;;;;4960245;28;20071;-80
2022/12/07 05:09:13;;;;;;;76.03;50.78;;;7.70;99.90;;;;;;4960570;28;20041;-79
2022/12/07 05:11:43;;;;;;;62.45;42.20;;;7.70;99.90;;;;;;4960305;28;20066;-77
2022/12/07 05:14:13;;;;;;;81.82;55.42;;;7.70;99.90;;;;;;4960951;28;20047;-78
2022/12/07 05:16:41;;;;;;;79.78;51.80;;;7.60;99.90;;;;;;4959662;28;20035;-78
2022/12/07 05:19:08;;;;;;;70.85;46.25;;;7.60;99.90;;;;;;4963034;28;20046;-77
2022/12/07 05:21:36;;;;;;;73.32;46.40;;;7.50;99.90;;;;;;4960118;28;20049;-77
2022/12/07 05:24:05;;;;;;;64.40;43.45;;;7.50;99.90;;;;;;4960437;28;20045;-78
2022/12/07 05:26:32;;;;;;;67.18;44.25;;;7.50;99.90;;;;;;4959190;28;20035;-78
2022/12/07 05:29:01;;;;;;;63.75;42.45;;;7.50;99.90;;;;;;4960573;28;20043;-78
2022/12/07 05:31:29;;;;;;;73.47;48.22;;;7.60;99.90;;;;;;4965027;28;20559;-77
2022/12/07 05:33:56;;;;;;;75.22;50.22;;;7.60;99.90;;;;;;4947812;28;20039;-77
2022/12/07 05:36:24;;;;;;;79.03;52.65;;;7.70;99.90;;;;;;4947170;28;20058;-77
2022/12/07 05:38:51;;;;;;;79.68;52.70;;;7.80;99.90;;;;;;4963076;28;20065;-76
2022/12/07 05:44:06;;;;;;;80.18;52.17;;;7.80;99.90;;;;;;4964613;28;20051;-76
2022/12/07 05:46:34;;;;;;;76.90;51.80;;;7.80;99.90;;;;;;4964478;28;20039;-76
2022/12/07 05:49:02;;;;;;;76.38;51.13;;;7.80;99.90;;;;;;4963777;28;20043;-76
2022/12/07 05:51:29;;;;;;;76.40;51.17;;;7.80;99.90;;;;;;4963110;28;20039;-77
2022/12/07 05:53:57;;;;;;;73.03;52.17;;;7.90;99.90;;;;;;4968167;28;20054;-76
2022/12/07 05:56:24;;;;;;;75.38;51.78;;;8.00;99.90;;;;;;4966746;28;20069;-77
2022/12/07 06:01:39;;;;;;;101.10;67.10;;;8.00;99.90;;;;;;4963343;28;20046;-77
2022/12/07 06:04:07;;;;;;;88.88;61.67;;;7.90;99.90;;;;;;4963497;28;20043;-75
2022/12/07 06:06:34;;;;;;;85.55;59.22;;;7.80;99.90;;;;;;4945759;28;20047;-76
2022/12/07 06:09:02;;;;;;;86.95;59.72;;;7.90;99.90;;;;;;4965000;28;20087;-75
2022/12/07 06:14:13;;;;;;;65.07;45.90;;;7.90;99.90;;;;;;4925959;28;20063;-75
2022/12/07 06:16:42;;;;;;;61.40;42.33;;;7.90;99.90;;;;;;4962355;28;20514;-74
2022/12/07 06:19:10;;;;;;;58.00;40.35;;;7.90;99.90;;;;;;4964291;28;20043;-75
2022/12/07 06:21:37;;;;;;;51.78;36.33;;;7.80;99.90;;;;;;4959913;28;20042;-74
2022/12/07 06:24:05;;;;;;;55.42;37.38;;;7.80;99.90;;;;;;4961110;28;20046;-74
2022/12/07 06:26:33;;;;;;;50.90;35.97;;;7.80;99.90;;;;;;4963383;28;20166;-75
2022/12/07 06:29:00;;;;;;;48.13;34.88;;;7.70;99.90;;;;;;4960325;28;20512;-75
2022/12/07 06:31:29;;;;;;;57.17;41.03;;;7.70;99.90;;;;;;4962105;28;20073;-74
2022/12/07 06:34:01;;;;;;;45.58;34.40;;;7.80;99.90;;;;;;4962585;28;20047;-75
2022/12/07 06:36:28;;;;;;;49.90;37.10;;;7.80;99.90;;;;;;4975301;28;20048;-75
2022/12/07 06:38:56;;;;;;;64.50;43.50;;;7.80;99.90;;;;;;4970326;28;20078;-76
2022/12/07 06:41:24;;;;;;;81.88;54.95;;;7.80;99.90;;;;;;4961495;28;20372;-74
2022/12/07 06:43:51;;;;;;;78.70;53.15;;;7.70;99.90;;;;;;4947584;28;20602;-75
2022/12/07 06:46:19;;;;;;;95.75;62.05;;;7.80;99.90;;;;;;4963199;28;20057;-76
2022/12/07 06:48:47;;;;;;;100.13;64.43;;;7.80;99.90;;;;;;4962566;28;20043;-75
2022/12/07 06:51:16;;;;;;;96.50;66.95;;;7.80;99.90;;;;;;4961481;28;20073;-76
2022/12/07 06:53:43;;;;;;;114.68;79.15;;;7.80;99.90;;;;;;4963112;28;20458;-74
2022/12/07 06:56:11;;;;;;;119.15;78.45;;;7.80;99.90;;;;;;4961868;28;20047;-75
2022/12/07 06:58:38;;;;;;;108.05;75.82;;;7.70;99.90;;;;;;4961388;28;20048;-74
2022/12/07 07:01:10;;;;;;;116.55;74.05;;;7.70;99.90;;;;;;4962647;28;20035;-76
2022/12/07 07:03:37;;;;;;;97.03;67.57;;;7.70;99.90;;;;;;4962429;28;20054;-75
2022/12/07 07:06:06;;;;;;;121.50;79.00;;;7.60;99.90;;;;;;4980266;28;20105;-76
2022/12/07 07:08:34;;;;;;;127.13;81.18;;;7.60;99.90;;;;;;4980379;28;20050;-76
2022/12/07 07:11:03;;;;;;;119.05;79.65;;;7.60;99.90;;;;;;4971086;28;20560;-76
2022/12/07 07:13:31;;;;;;;129.65;87.78;;;7.60;99.90;;;;;;4964632;28;20057;-75
2022/12/07 07:15:58;;;;;;;122.57;83.22;;;7.60;99.90;;;;;;4962214;28;20440;-74
2022/12/07 07:18:26;;;;;;;131.15;84.93;;;7.60;99.90;;;;;;4965405;28;20036;-75
2022/12/07 07:20:54;;;;;;;121.88;81.68;;;7.60;99.90;;;;;;4964897;28;20054;-75
2022/12/07 07:23:22;;;;;;;131.07;83.60;;;7.60;99.90;;;;;;4942551;28;20051;-76
2022/12/07 07:25:51;;;;;;;136.38;92.32;;;7.50;99.90;;;;;;4963290;28;20040;-77
2022/12/07 07:28:19;;;;;;;136.40;89.38;;;7.50;99.90;;;;;;4961297;28;20411;-79
2022/12/07 07:30:46;;;;;;;145.27;91.93;;;7.50;99.90;;;;;;4962019;28;20090;-77
2022/12/07 07:33:14;;;;;;;128.63;83.63;;;7.50;99.90;;;;;;4963067;28;20051;-75
2022/12/07 07:35:41;;;;;;;130.43;85.35;;;7.50;99.90;;;;;;4965039;28;20051;-76
2022/12/07 07:38:09;;;;;;;119.88;79.32;;;7.50;99.90;;;;;;4971437;28;20074;-80
2022/12/07 07:40:37;;;;;;;109.22;73.38;;;7.60;99.90;;;;;;4973925;28;20478;-78
2022/12/07 07:43:05;;;;;;;103.63;69.47;;;7.60;99.90;;;;;;4977020;28;20055;-77
2022/12/07 07:45:33;;;;;;;98.97;66.05;;;7.60;99.90;;;;;;4964571;28;20062;-76
2022/12/07 07:48:00;;;;;;;91.28;63.00;;;7.60;99.90;;;;;;4965606;28;20035;-77
2022/12/07 07:50:27;;;;;;;82.40;56.08;;;7.50;99.90;;;;;;4965381;28;20086;-79
2022/12/07 07:52:55;;;;;;;97.45;66.63;;;7.60;99.90;;;;;;4964594;28;20046;-76
2022/12/07 07:55:22;;;;;;;109.20;74.82;;;7.50;99.90;;;;;;4963097;28;20039;-76
2022/12/07 07:57:49;;;;;;;104.43;71.82;;;7.60;99.90;;;;;;4967184;28;20039;-77
2022/12/07 08:00:19;;;;;;;95.65;67.90;;;7.70;99.90;;;;;;4976822;28;20059;-77
2022/12/07 08:02:47;;;;;;;106.38;73.22;;;7.60;99.90;;;;;;4980696;28;20039;-77
2022/12/07 08:05:15;;;;;;;98.72;69.32;;;7.70;99.90;;;;;;4983598;28;20078;-76
2022/12/07 08:07:43;;;;;;;100.65;68.28;;;7.70;99.90;;;;;;4975057;28;20101;-76
2022/12/07 08:10:13;;;;;;;93.55;65.70;;;7.70;99.90;;;;;;4960308;28;20047;-78
2022/12/07 08:15:26;;;;;;;92.53;62.80;;;7.80;99.90;;;;;;4975112;28;20069;-77
2022/12/07 08:17:54;;;;;;;95.82;67.10;;;7.80;99.90;;;;;;4972760;28;20043;-76
2022/12/07 08:20:23;;;;;;;100.50;73.22;;;7.90;99.90;;;;;;4962879;28;20479;-76
2022/12/07 08:22:50;;;;;;;108.15;76.45;;;7.90;99.90;;;;;;4967010;28;20110;-78
2022/12/07 08:25:18;;;;;;;84.53;60.70;;;7.90;99.90;;;;;;4946642;28;20459;-79
2022/12/07 08:27:45;;;;;;;98.97;71.40;;;7.90;99.90;;;;;;4959516;28;20101;-80
2022/12/07 08:30:13;;;;;;;99.97;72.72;;;7.80;99.90;;;;;;4942614;28;20079;-76
2022/12/07 08:32:42;;;;;;;108.55;77.13;;;7.70;99.90;;;;;;4961769;28;20043;-78
2022/12/07 08:35:09;;;;;;;105.70;72.40;;;7.80;99.90;;;;;;4962867;28;20051;-76
2022/12/07 08:37:37;;;;;;;81.13;59.45;;;7.80;99.90;;;;;;4937584;29;20202;-77
2022/12/07 08:42:40;;;;;;;97.13;69.40;;;7.80;99.90;;;;;;4921513;29;20048;-80
2022/12/07 08:45:10;;;;;;;60.35;45.92;;;7.90;99.90;;;;;;4923969;29;20140;-79
2022/12/07 08:47:41;;;;;;;79.20;55.42;;;7.90;99.90;;;;;;4923789;29;20040;-79
2022/12/07 08:50:12;;;;;;;51.10;33.70;;;8.00;99.90;;;;;;4922762;29;20052;-80
2022/12/07 08:52:41;;;;;;;55.65;42.28;;;8.10;99.90;;;;;;4922532;29;20035;-81
2022/12/07 08:55:12;;;;;;;58.33;40.60;;;8.10;99.90;;;;;;4923460;29;20078;-80
2022/12/07 08:57:40;;;;;;;57.75;41.67;;;8.20;99.90;;;;;;4922114;29;20046;-80
2022/12/07 09:00:08;;;;;;;53.20;36.97;;;8.10;99.90;;;;;;4920467;29;20052;-78
2022/12/07 09:02:37;;;;;;;52.90;37.63;;;8.10;99.90;;;;;;4922001;29;20218;-79
2022/12/07 09:05:04;;;;;;;59.58;41.22;;;8.10;99.90;;;;;;4924039;29;20111;-79
2022/12/07 09:07:34;;;;;;;58.22;40.47;;;7.90;99.90;;;;;;4926840;29;20056;-79
2022/12/07 09:10:02;;;;;;;62.17;40.97;;;8.00;99.90;;;;;;4927721;29;20044;-79
2022/12/07 09:12:29;;;;;;;53.35;35.50;;;8.10;99.90;;;;;;4927699;29;20048;-81
2022/12/07 09:14:57;;;;;;;52.10;38.03;;;8.20;99.90;;;;;;4927566;29;20508;-79
2022/12/07 09:17:24;;;;;;;55.88;38.45;;;8.20;99.90;;;;;;4930628;29;20048;-78
2022/12/07 09:19:51;;;;;;;52.08;36.97;;;8.20;99.90;;;;;;4930621;29;20503;-82
2022/12/07 09:22:19;;;;;;;55.28;37.35;;;8.30;99.90;;;;;;4930747;29;20044;-82
2022/12/07 09:24:48;;;;;;;46.58;31.98;;;8.30;99.90;;;;;;4930871;29;20361;-81
2022/12/07 09:27:17;;;;;;;39.22;28.73;;;8.30;99.90;;;;;;4909669;29;20050;-81
2022/12/07 09:29:44;;;;;;;46.22;34.53;;;8.30;99.90;;;;;;4927056;29;20044;-79
2022/12/07 09:32:12;;;;;;;52.85;37.55;;;8.20;99.90;;;;;;4926157;29;20046;-80
2022/12/07 09:34:40;;;;;;;58.38;41.58;;;8.30;99.90;;;;;;4911052;29;20170;-80
2022/12/07 09:37:07;;;;;;;62.15;45.95;;;8.30;99.90;;;;;;4928318;29;20059;-82
2022/12/07 09:39:35;;;;;;;63.67;47.30;;;8.40;99.90;;;;;;4928049;29;20051;-81
2022/12/07 09:42:07;;;;;;;57.60;42.75;;;8.40;99.90;;;;;;4927417;29;20047;-83
2022/12/07 09:44:35;;;;;;;62.65;46.78;;;8.40;99.90;;;;;;4924892;29;20055;-80
2022/12/07 09:47:03;;;;;;;63.85;48.58;;;8.40;99.90;;;;;;4929005;29;20483;-83
2022/12/07 09:49:33;;;;;;;72.13;52.65;;;8.30;99.90;;;;;;4911742;29;20624;-83
2022/12/07 09:52:04;;;;;;;80.80;58.63;;;8.40;99.90;;;;;;4933210;29;20115;-81
2022/12/07 09:54:31;;;;;;;71.07;51.80;;;8.50;99.90;;;;;;4908873;29;20643;-80
2022/12/07 09:57:00;;;;;;;71.38;54.90;;;8.60;99.90;;;;;;4925530;29;20122;-82
2022/12/07 09:59:29;;;;;;;75.60;55.00;;;8.80;99.90;;;;;;4926382;29;20119;-80
2022/12/07 10:02:17;;;;;;;54.60;41.63;;;9.00;99.90;;;;;;4925713;29;20079;-79
2022/12/07 10:04:46;;;;;;;57.40;40.50;;;9.20;99.90;;;;;;4909007;29;20130;-82
2022/12/07 10:07:13;;;;;;;44.53;32.05;;;9.30;99.90;;;;;;4924646;29;20051;-81
2022/12/07 10:09:41;;;;;;;37.15;29.25;;;9.20;99.90;;;;;;4924976;29;20044;-82
2022/12/07 10:12:11;;;;;;;40.53;31.35;;;9.20;99.90;;;;;;4906705;29;20070;-82
2022/12/07 10:14:53;;;;;;;41.67;30.77;;;9.10;99.90;;;;;;4924721;29;20131;-81
2022/12/07 10:17:33;;;;;;;28.13;22.70;;;9.00;99.90;;;;;;4922931;29;20043;-81
2022/12/07 10:20:19;;;;;;;30.48;24.58;;;9.00;99.90;;;;;;4926137;29;20048;-81
2022/12/07 10:22:57;;;;;;;33.72;24.95;;;9.00;99.90;;;;;;4924382;29;20099;-80
2022/12/07 10:25:27;;;;;;;34.65;25.15;;;9.20;99.90;;;;;;4925457;29;20067;-79
2022/12/07 10:28:19;;;;;;;31.83;23.75;;;9.00;99.90;;;;;;4924958;29;20048;-81
2022/12/07 10:30:56;;;;;;;36.95;27.98;;;9.00;99.90;;;;;;4918582;29;20519;-81
2022/12/07 10:33:32;;;;;;;37.17;27.90;;;9.00;99.90;;;;;;4905473;29;20115;-81
2022/12/07 10:36:01;;;;;;;39.03;29.42;;;9.10;99.90;;;;;;4926437;29;20045;-80
2022/12/07 10:38:32;;;;;;;36.15;26.88;;;9.10;99.90;;;;;;4925029;29;20047;-82
2022/12/07 10:41:07;;;;;;;34.92;26.48;;;9.20;99.90;;;;;;4924830;29;20084;-80
2022/12/07 10:43:35;;;;;;;35.72;25.98;;;9.20;99.90;;;;;;4923363;29;20044;-81
2022/12/07 10:46:40;;;;;;;34.65;26.02;;;9.30;99.90;;;;;;4925594;29;20068;-80
2022/12/07 10:49:31;;;;;;;17.83;14.35;;;9.40;99.90;;;;;;4926228;29;20040;-80
2022/12/07 10:52:09;;;;;;;23.15;17.10;;;9.40;99.90;;;;;;4923639;29;20484;-81
2022/12/07 10:54:44;;;;;;;30.10;21.55;;;9.40;99.90;;;;;;4924682;29;20054;-81
2022/12/07 10:57:27;;;;;;;19.73;15.23;;;9.50;99.90;;;;;;4925354;29;20055;-80
2022/12/07 11:00:05;;;;;;;26.45;18.70;;;9.50;99.90;;;;;;4905861;29;20464;-79
2022/12/07 11:02:46;;;;;;;24.30;19.27;;;9.50;99.90;;;;;;4906909;29;20515;-80
2022/12/07 11:05:25;;;;;;;28.73;20.73;;;9.50;99.90;;;;;;4924035;29;20043;-81
2022/12/07 11:08:05;;;;;;;29.95;21.23;;;9.50;99.90;;;;;;4923883;29;20040;-82
2022/12/07 11:10:44;;;;;;;31.20;23.90;;;9.50;99.90;;;;;;4922999;29;20058;-81
2022/12/07 11:13:23;;;;;;;34.78;27.38;;;9.50;99.90;;;;;;4924480;29;20043;-80
2022/12/07 11:16:08;;;;;;;36.55;28.70;;;9.50;99.90;;;;;;4926792;29;20104;-78
2022/12/07 11:18:46;;;;;;;38.22;28.92;;;9.50;99.90;;;;;;4908813;29;20154;-81
2022/12/07 11:21:26;;;;;;;40.22;32.05;;;9.50;99.90;;;;;;4926353;29;20040;-81
2022/12/07 11:24:02;;;;;;;54.20;41.55;;;9.50;99.90;;;;;;4925654;29;20075;-80
2022/12/07 11:26:57;;;;;;;69.97;48.28;;;9.50;99.90;;;;;;4906614;29;20048;-82
2022/12/07 11:29:54;;;;;;;62.47;41.47;;;9.40;99.90;;;;;;4907662;29;20207;-81
2022/12/07 11:32:35;;;;;;;71.18;50.25;;;9.40;99.90;;;;;;4922364;29;20107;-80
2022/12/07 11:35:12;;;;;;;74.00;52.38;;;9.40;99.90;;;;;;4906503;29;20056;-82
2022/12/07 11:37:41;;;;;;;71.65;51.13;;;9.50;99.90;;;;;;4921665;29;20043;-81
2022/12/07 11:40:22;;;;;;;69.53;51.47;;;9.50;99.90;;;;;;4923040;29;20050;-82
2022/12/07 11:42:57;;;;;;;71.53;52.78;;;9.50;99.90;;;;;;4924962;29;20044;-83
2022/12/07 11:45:30;;;;;;;67.55;49.17;;;9.60;99.90;;;;;;4907702;29;20389;-82
2022/12/07 11:48:02;;;;;;;68.40;48.83;;;9.60;99.90;;;;;;4922592;29;20048;-84
2022/12/07 11:50:37;;;;;;;59.17;44.88;;;9.60;99.90;;;;;;4944965;29;20044;-80
2022/12/07 11:53:12;;;;;;;61.55;44.58;;;9.60;99.90;;;;;;4944841;29;20036;-86
2022/12/07 11:55:46;;;;;;;56.92;42.88;;;9.60;99.90;;;;;;4941466;29;20071;-83
2022/12/07 11:58:32;;;;;;;46.95;35.60;;;9.60;99.90;;;;;;4923403;29;20043;-82
2022/12/07 12:01:12;;;;;;;42.10;32.30;;;9.60;99.90;;;;;;4922665;29;20068;-82
2022/12/07 12:03:45;;;;;;;41.63;30.45;;;9.60;99.90;;;;;;4922603;29;20040;-82
2022/12/07 12:06:14;;;;;;;35.50;28.90;;;9.60;99.90;;;;;;4923760;29;20058;-82
2022/12/07 12:08:47;;;;;;;40.85;30.23;;;9.80;99.90;;;;;;4921451;29;20048;-83
2022/12/07 12:11:31;;;;;;;35.72;27.00;;;9.80;99.90;;;;;;4923246;29;20152;-83
2022/12/07 12:14:29;;;;;;;29.60;22.33;;;9.90;99.90;;;;;;4905572;29;20409;-83
2022/12/07 12:17:31;;;;;;;25.83;20.38;;;9.90;99.90;;;;;;4921456;29;20060;-82
2022/12/07 12:20:05;;;;;;;23.48;18.90;;;9.90;99.90;;;;;;4922344;29;20575;-82
2022/12/07 12:22:39;;;;;;;24.17;20.08;;;9.90;99.90;;;;;;4920771;29;20500;-82
2022/12/07 12:25:14;;;;;;;39.58;30.88;;;9.90;99.90;;;;;;4922698;29;20044;-83
2022/12/07 12:27:48;;;;;;;37.58;29.20;;;9.90;99.90;;;;;;4922441;29;20052;-83
2022/12/07 12:30:37;;;;;;;37.25;29.98;;;9.90;99.90;;;;;;4923043;29;20044;-83
2022/12/07 12:33:14;;;;;;;33.95;27.48;;;9.80;99.90;;;;;;4922324;29;20075;-87
2022/12/07 12:35:42;;;;;;;33.75;27.13;;;9.80;99.90;;;;;;4922463;29;20090;-82
2022/12/07 12:38:49;;;;;;;34.25;28.30;;;9.70;99.90;;;;;;4905417;29;20052;-84
2022/12/07 12:45:04;;;;;;;34.70;27.33;;;9.60;99.90;;;;;;4922288;29;20515;-82
2022/12/07 12:47:44;;;;;;;37.95;28.98;;;9.60;99.90;;;;;;4906457;29;20062;-83
2022/12/07 12:50:21;;;;;;;46.10;33.40;;;9.50;99.90;;;;;;4921726;29;20052;-84
2022/12/07 12:52:56;;;;;;;69.10;52.67;;;9.50;99.90;;;;;;4921351;29;20036;-82
2022/12/07 12:55:52;;;;;;;86.28;67.03;;;9.50;99.90;;;;;;4924194;29;20048;-83
2022/12/07 12:58:38;;;;;;;80.15;62.33;;;9.50;99.90;;;;;;4906448;29;20078;-83
2022/12/07 13:01:24;;;;;;;;;;;9.50;99.90;;;;;;4906727;29;20086;-85
2022/12/07 13:03:56;;;;;;;77.50;57.92;;;9.50;99.90;;;;;;4923658;29;19931;-82
2022/12/07 13:06:37;;;;;;;76.28;56.22;;;9.60;99.90;;;;;;4923810;29;20445;-81
2022/12/07 13:09:06;;;;;;;63.90;48.30;;;9.60;99.90;;;;;;4924218;29;20068;-81
2022/12/07 13:11:38;;;;;;;88.97;63.38;;;9.60;99.90;;;;;;4922563;29;20536;-82